sensor_id;sensor_type;location;lat;lon;timestamp;P1;durP1;ratioP1;P2;durP2;ratioP2
9094;SDS011;4583;49.796;9.902;2023-03-05T16:50:51;7.10;;;4.10;;
9094;SDS011;4583;49.796;9.902;2023-03-05T17:00:52;9.57;;;4.10;;
9094;SDS011;4583;49.796;9.902;2023-03-05T17:10:54;7.13;;;3.77;;
9094;SDS011;4583;49.796;9.902;2023-03-05T17:20:56;9.23;;;3.80;;
9094;SDS011;4583;49.796;9.902;2023-03-05T17:30:58;7.33;;;3.60;;
9094;SDS011;4583;49.796;9.902;2023-03-05T17:41:01;6.23;;;3.87;;
9094;SDS011;4583;49.796;9.902;2023-03-05T17:51:04;6.60;;;3.90;;
9094;SDS011;4583;49.796;9.902;2023-03-05T18:01:06;11.97;;;4.30;;
9094;SDS011;4583;49.796;9.902;2023-03-05T18:11:08;6.57;;;4.10;;
9094;SDS011;4583;49.796;9.902;2023-03-05T18:21:11;8.57;;;4.60;;
9094;SDS011;4583;49.796;9.902;2023-03-05T18:31:12;7.87;;;4.33;;
9094;SDS011;4583;49.796;9.902;2023-03-05T18:41:21;13.40;;;6.00;;
9094;SDS011;4583;49.796;9.902;2023-03-05T18:51:28;9.07;;;5.27;;
9094;SDS011;4583;49.796;9.902;2023-03-05T19:01:29;11.00;;;5.57;;
9094;SDS011;4583;49.796;9.902;2023-03-05T19:11:31;8.07;;;4.23;;
9094;SDS011;4583;49.796;9.902;2023-03-05T19:28:30;10.17;;;4.17;;
9094;SDS011;4583;49.796;9.902;2023-03-05T19:38:32;11.23;;;5.60;;
9094;SDS011;4583;49.796;9.902;2023-03-05T19:48:34;8.87;;;5.20;;
9094;SDS011;4583;49.796;9.902;2023-03-05T19:58:38;9.60;;;5.73;;
9094;SDS011;4583;49.796;9.902;2023-03-05T20:08:42;9.47;;;6.13;;
9094;SDS011;4583;49.796;9.902;2023-03-05T20:18:45;16.13;;;7.33;;
9094;SDS011;4583;49.796;9.902;2023-03-05T20:28:53;10.37;;;6.03;;
9094;SDS011;4583;49.796;9.902;2023-03-05T20:38:55;9.43;;;5.33;;
9094;SDS011;4583;49.796;9.902;2023-03-05T20:48:58;9.17;;;4.90;;
9094;SDS011;4583;49.796;9.902;2023-03-05T20:59:02;9.50;;;4.83;;
9094;SDS011;4583;49.796;9.902;2023-03-05T21:09:06;9.33;;;4.90;;
9094;SDS011;4583;49.796;9.902;2023-03-05T21:19:07;9.17;;;5.40;;
9094;SDS011;4583;49.796;9.902;2023-03-05T21:29:09;11.73;;;5.30;;
9094;SDS011;4583;49.796;9.902;2023-03-05T21:39:11;9.53;;;5.57;;
9094;SDS011;4583;49.796;9.902;2023-03-05T21:49:13;8.77;;;4.87;;
9094;SDS011;4583;49.796;9.902;2023-03-05T21:59:14;8.73;;;4.80;;
9094;SDS011;4583;49.796;9.902;2023-03-05T22:09:16;8.40;;;4.90;;
9094;SDS011;4583;49.796;9.902;2023-03-05T22:19:18;12.20;;;5.60;;
9094;SDS011;4583;49.796;9.902;2023-03-05T22:29:20;8.63;;;5.30;;
9094;SDS011;4583;49.796;9.902;2023-03-05T22:39:22;7.40;;;4.97;;
9094;SDS011;4583;49.796;9.902;2023-03-05T22:49:24;10.03;;;5.03;;
9094;SDS011;4583;49.796;9.902;2023-03-05T22:59:26;8.70;;;5.10;;
9094;SDS011;4583;49.796;9.902;2023-03-05T23:09:28;9.03;;;4.80;;
9094;SDS011;4583;49.796;9.902;2023-03-05T23:19:30;8.73;;;5.17;;
9094;SDS011;4583;49.796;9.902;2023-03-05T23:29:32;9.73;;;5.40;;
9094;SDS011;4583;49.796;9.902;2023-03-05T23:39:51;10.53;;;5.60;;
9094;SDS011;4583;49.796;9.902;2023-03-05T23:49:53;9.87;;;5.73;;
9094;SDS011;4583;49.796;9.902;2023-03-05T23:59:55;9.93;;;5.60;;
